This is the latest recevied weather packets stored in our database for station/object KW6V-15. If no packets are shown the sender has not sent any weather packets the latest 10 day(s).
| Time | Temp. | Humidity | Pressure | Rain* | Wind** | Luminosity | Snow |
|---|---|---|---|---|---|---|---|
| 1788640234 | 20.56° C | 72% | 1015.4 hPa | 0 mm | - | - | - |
| 1788638437 | 20° C | 73% | 1015.4 hPa | 0 mm | - | - | - |
| 1788636632 | 20.56° C | 73% | 1015.4 hPa | 0 mm | - | - | - |
| 1788634820 | 20° C | 75% | 1015.4 hPa | 0 mm | - | - | - |
| 1788633036 | 18.89° C | 78% | 1015.4 hPa | 0 mm | - | - | - |
| 1788631224 | 17.22° C | 85% | 1015.4 hPa | 0 mm | - | - | - |
| 1788629422 | 15° C | 92% | 1015.5 hPa | 0 mm | - | - | - |
| 1788627636 | 13.33° C | 93% | 1015.7 hPa | 0 mm | - | - | - |
| 1788625840 | 12.78° C | 93% | 1015.7 hPa | 0 mm | - | - | - |
| 1788624025 | 11.67° C | 93% | 1015.6 hPa | 0 mm | - | - | - |
| 1788622213 | 11.67° C | 93% | 1015.5 hPa | 0 mm | - | - | - |
| 1788620442 | 11.11° C | 93% | 1015.4 hPa | 0 mm | - | - | - |
| 1788618640 | 10.56° C | 93% | 1015.4 hPa | 0 mm | - | - | - |
| 1788616828 | 11.11° C | 93% | 1015.2 hPa | 0 mm | - | - | - |
| 1788615039 | 11.11° C | 93% | 1014.9 hPa | 0 mm | - | - | - |
| 1788613224 | 9.44° C | 93% | 1014.9 hPa | 0 mm | - | - | - |
| 1788611439 | 9.44° C | 93% | 1015 hPa | 0 mm | - | - | - |
| 1788609624 | 8.89° C | 92% | 1015.2 hPa | 0 mm | - | - | - |
| 1788607823 | 9.44° C | 92% | 1015.3 hPa | 0 mm | - | - | - |
| 1788606022 | 10° C | 92% | 1015.4 hPa | 0 mm | - | - | - |
| 1788604233 | 10° C | 92% | 1015.7 hPa | 0 mm | - | - | - |
| 1788602420 | 10.56° C | 92% | 1015.8 hPa | 0 mm | - | - | - |
| 1788600614 | 10° C | 92% | 1016 hPa | 0 mm | - | - | - |
| 1788598832 | 9.44° C | 92% | 1016.1 hPa | 0 mm | - | - | - |
| 1788597025 | 9.44° C | 91% | 1016.1 hPa | 0 mm | - | - | - |
* Rain latest hour (hover to see other rain measurements)
** Current wind speed in m/s (hover to see current wind gust speed)